Home > Products > Valid Products > TAF

000
FTUS41 KPBZ 301700 RRA
TAFAGC
TAF
KAGC 301741Z 3018/0118 30006KT 4SM -SHRA BR OVC050
      TEMPO 3018/3019 2SM SHRA
     FM301900 30006KT 3SM BR OVC008
     FM010000 30006KT 3SM BR OVC010
     FM010400 36005KT P6SM OVC020
     FM011500 12005KT P6SM BKN035=



000
FTUS41 KPBZ 301700 RRA
TAFDUJ
TAF
KDUJ 301741Z 3018/0118 23006KT P6SM VCSH OVC040
      TEMPO 3018/3019 3SM -TSRA OVC040CB
     FM010000 30006KT 3SM BR OVC010
     FM010300 36005KT P6SM OVC020
     FM011500 12005KT P6SM BKN035=



000
FTUS41 KPBZ 301700 RRA
TAFMGW
TAF
KMGW 301741Z 3018/0118 27005KT P6SM OVC150
     FM301900 28008KT 2SM -SHRA VCTS OVC020CB
     FM302100 30006KT 3SM BR OVC010
     FM010300 36005KT P6SM OVC020
     FM011500 12005KT P6SM BKN035=



000
FTUS41 KPBZ 301700 RRA
TAFBVI
TAF
KBVI 301741Z 3018/0118 28006KT 2SM BR OVC008
     FM010000 30006KT 3SM BR OVC010
     FM010300 36005KT P6SM OVC020
     FM011500 12005KT P6SM BKN035=



000
FTUS41 KPBZ 301700 RRA
TAFZZV
TAF
KZZV 301741Z 3018/0118 14005KT 3SM BR SCT050
     FM301900 30005KT 3SM BR BKN006
     FM010000 36005KT P6SM OVC020
     FM011500 12005KT P6SM BKN035=



000
FTUS41 KPBZ 301700 RRA
TAFHLG
TAF
KHLG 301741Z 3018/0118 28006KT 2SM BR OVC008
     FM010000 30006KT 3SM BR OVC010
     FM010300 36005KT P6SM OVC020
     FM011500 12005KT P6SM BKN035=



000
FTUS41 KPBZ 301700 RRA
TAFLBE
TAF
KLBE 301741Z 3018/0118 29010KT P6SM OVC150
     FM302000 29008KT 3SM -SHRA OVC020
     FM302200 30006KT 3SM BR OVC010
     FM010400 36005KT P6SM OVC020
     FM011500 12005KT P6SM BKN035=



000
FTUS41 KPBZ 301700 RRA
TAFPIT
TAF
KPIT 301741Z 3018/0124 30006KT 3SM BR OVC008
      TEMPO 3018/3019 4SM OVC050
     FM010000 30006KT 3SM BR OVC010
     FM010300 36005KT P6SM OVC020
     FM011500 12005KT P6SM BKN035=



000
FTUS41 KPBZ 301600 AAB
TAFZZV
TAF AMD
KZZV 301625Z 3016/0112 28004KT 5SM -SHRA OVC050
      TEMPO 3016/3017 2SM -TSRA OVC050CB
     FM301800 27006KT 3SM BR BKN020
     FM302100 33005KT P6SM BKN040=



000
FTUS41 KPBZ 301400 AAA
TAFLBE
TAF AMD
KLBE 301442Z 3015/0112 21004KT P6SM SCT100
     FM301600 23006KT 4SM -SHRA VCTS BKN020CB
     FM301800 28006KT 2SM BR BKN010
     FM302300 35005KT P6SM BKN035=



000
FTUS41 KPBZ 301400 AAA
TAFAGC
TAF AMD
KAGC 301442Z 3015/0112 20004KT P6SM SCT100
     FM301700 23006KT 4SM -SHRA VCTS BKN020CB
      TEMPO 3017/3019 1SM SHRA BKN020
     FM301900 28006KT 2SM BR BKN010
     FM302300 35005KT P6SM BKN035=



000
FTUS41 KPBZ 301400 AAA
TAFMGW
TAF AMD
KMGW 301442Z 3015/0112 21004KT P6SM SCT100
     FM302000 26006KT P6SM VCSH BKN050
     FM010100 VRB03KT P6SM BKN040=



000
FTUS41 KPBZ 301400 AAB
TAFPIT
TAF AMD
KPIT 301442Z 3015/0118 21004KT P6SM SCT100
     FM301600 23006KT 4SM -SHRA VCTS BKN020CB
      TEMPO 3016/3018 1SM SHRA BKN020
     FM301800 28006KT 2SM BR BKN010
     FM302300 35005KT P6SM BKN035=



000
FTUS41 KPBZ 301400 AAB
TAFHLG
TAF AMD
KHLG 301442Z 3015/0112 21004KT 3SM BR SCT002
     FM301600 23006KT 4SM -SHRA VCTS BKN020CB
      TEMPO 3016/3018 1SM SHRA BKN020
     FM301800 28006KT 2SM BR BKN010
     FM302200 35005KT P6SM BKN035=



000
FTUS41 KPBZ 301400 AAA
TAFBVI
TAF AMD
KBVI 301442Z 3015/0112 21004KT P6SM BKN100
     FM301530 23006KT 4SM -SHRA VCTS BKN020CB
      TEMPO 3016/3017 1SM SHRA BKN020
     FM301700 28006KT 2SM BR BKN010
     FM302300 35005KT P6SM BKN035=



000
FTUS41 KPBZ 301400 AAA
TAFZZV
TAF AMD
KZZV 301440Z 3015/0112 23004KT 5SM -SHRA OVC050
      TEMPO 3015/3016 VRB10G20KT 2SM -TSRA OVC050CB
     FM301700 27006KT 3SM BR BKN020
     FM302100 33005KT P6SM BKN040=



000
FTUS41 KPBZ 301400 AAA
TAFPIT
TAF AMD
KPIT 301433Z 3015/0118 21004KT P6SM SCT100
     FM301600 23006KT 4SM -SHRA VCTS BKN020CB
      TEMPO 3016/3018 1SM SHRA BKN020
     FM301800 28006KT 2SM BR BKN010
     FM302300 35005KT P6SM BKN035=



000
FTUS41 KPBZ 301200 AAA
TAFHLG
TAF AMD
KHLG 301259Z 3013/0112 00000KT 3SM BR SCT003
      TEMPO 3013/3014 1/4SM FG BKN002
     FM301400 23004KT P6SM SCT100
     FM301700 27006KT P6SM -SHRA BKN050
     FM302100 31005KT P6SM BKN040=



000
FTUS41 KPBZ 301100
TAFAGC
TAF
KAGC 301138Z 3012/0112 15006KT 4SM BR SKC
      TEMPO 3012/3013 2SM BR
     FM301300 23004KT P6SM SCT100
     FM301800 27006KT P6SM -SHRA VCTS BKN050CB
     FM302200 33005KT P6SM BKN035=



000
FTUS41 KPBZ 301100
TAFPIT
TAF
KPIT 301138Z 3012/0118 00000KT 5SM BR SKC
     FM301300 21004KT P6SM SCT100
     FM301700 27006KT P6SM -SHRA VCTS BKN050CB
     FM302300 35005KT P6SM BKN035=



000
FTUS41 KPBZ 301100
TAFZZV
TAF
KZZV 301138Z 3012/0112 00000KT 5SM BR SKC
      TEMPO 3012/3013 2SM BR SCT002
     FM301300 23004KT P6SM SCT100
     FM301600 27006KT P6SM -SHRA BKN050
     FM302100 33005KT P6SM BKN040=



000
FTUS41 KPBZ 301100
TAFLBE
TAF
KLBE 301138Z 3012/0112 00000KT 4SM BR SKC
     FM301300 23004KT P6SM SCT100
     FM302000 27006KT 5SM -SHRA BR VCTS BKN050CB
     FM302300 31005KT P6SM BKN035=



000
FTUS41 KPBZ 301100
TAFMGW
TAF
KMGW 301138Z 3012/0112 00000KT 5SM BR SCT050
     FM301300 23004KT P6SM SCT100
     FM302000 26006KT P6SM -SHRA BKN050
     FM010100 VRB03KT P6SM BKN040=



000
FTUS41 KPBZ 301100
TAFBVI
TAF
KBVI 301138Z 3012/0112 00000KT 4SM BR SKC
      TEMPO 3012/3013 2SM BR
     FM301300 23004KT P6SM SCT100
     FM301600 27006KT 5SM -SHRA VCTS BKN050CB
     FM302200 35005KT P6SM BKN035=



000
FTUS41 KPBZ 301100
TAFHLG
TAF
KHLG 301138Z 3012/0112 00000KT 3SM BR SCT003
      TEMPO 3012/3013 1/4SM FG BKN002
     FM301400 23004KT P6SM SCT100
     FM301700 27006KT P6SM -SHRA BKN050
     FM302100 31005KT P6SM BKN040=



000
FTUS41 KPBZ 301100
TAFDUJ
TAF
KDUJ 301138Z 3012/0112 10003KT 3SM BR SCT050
      TEMPO 3012/3013 1 1/2SM BR
     FM301300 23004KT P6SM SCT100
     FM301700 27006KT 4SM -SHRA BR VCTS BKN040CB
     FM302200 36005KT P6SM BKN035=



000
FTUS41 KPBZ 301000 AAB
TAFDUJ
TAF AMD
KDUJ 301026Z 3010/0106 10003KT 3SM BR SCT050
     FM301200 23004KT P6SM SCT100
     FM301600 27006KT 4SM -SHRA BR VCTS BKN040CB
     FM302200 34005KT P6SM BKN035=



000
FTUS41 KPBZ 301000 AAA
TAFZZV
TAF AMD
KZZV 301023Z 3010/0106 00000KT 5SM BR SKC
      TEMPO 3010/3012 2SM BR SCT002
     FM301200 23004KT P6SM SCT100
     FM301600 27006KT P6SM -SHRA BKN050
     FM302100 31005KT P6SM BKN040=



000
FTUS41 KPBZ 301000 AAA
TAFMGW
TAF AMD
KMGW 301022Z 3010/0106 00000KT 5SM BR SCT050
     FM301200 23004KT P6SM SCT100
     FM302000 26006KT P6SM -SHRA BKN050
     FM010100 VRB03KT P6SM BKN040=



000
FTUS41 KPBZ 301000 AAA
TAFHLG
TAF AMD
KHLG 301010Z 3010/0106 00000KT 4SM BR SCT003
      TEMPO 3010/3013 2SM BR BKN003
     FM301300 23004KT P6SM SCT100
     FM301600 27006KT P6SM -SHRA BKN050
     FM302100 31005KT P6SM BKN040=



000
FTUS41 KPBZ 301000 AAB
TAFLBE
TAF AMD
KLBE 301009Z 3010/0106 00000KT 5SM BR SKC
     FM301200 23004KT P6SM SCT100
     FM301900 27006KT P6SM -SHRA BKN050
     FM302300 31005KT P6SM BKN035=



000
FTUS41 KPBZ 301000 AAA
TAFBVI
TAF AMD
KBVI 301009Z 3010/0106 00000KT 4SM BR SKC
      TEMPO 3010/3012 2SM BR
     FM301200 23004KT P6SM SCT100
     FM301500 27006KT 5SM -SHRA BKN050
     FM302200 33005KT P6SM BKN035
      AMD NOT SKED=



000
FTUS41 KPBZ 301000 AAB
TAFPIT
TAF AMD
KPIT 301007Z 3010/0112 00000KT 5SM BR SKC
     FM301200 21004KT P6SM SCT100
     FM301700 27006KT P6SM -SHRA BKN050
     FM302300 33005KT P6SM BKN035=



000
FTUS41 KPBZ 301000 AAB
TAFAGC
TAF AMD
KAGC 301007Z 3010/0106 15006KT 4SM BR SKC
      TEMPO 3010/3012 2SM BR
     FM301200 23004KT P6SM SCT100
     FM301700 27006KT P6SM -SHRA BKN050
     FM302200 33005KT P6SM BKN035=



000
FTUS41 KPBZ 300900 AAA
TAFDUJ
TAF AMD
KDUJ 300913Z 3009/0106 10003KT 3SM BR SCT050
     FM301200 23004KT P6SM SCT100
     FM301600 27006KT P6SM VCSH BKN050
     FM302300 34005KT P6SM BKN035=



000
FTUS41 KPBZ 300800 AAA
TAFPIT
TAF AMD
KPIT 300856Z 3009/0112 00000KT P6SM SKC
     FM301000 00000KT 3SM BR SKC
     FM301200 21004KT P6SM SCT100
     FM301700 27006KT P6SM VCSH BKN050
     FM302200 33005KT P6SM BKN035=



000
FTUS41 KPBZ 300800 AAA
TAFLBE
TAF AMD
KLBE 300830Z 3009/0106 00000KT 3SM BR SKC
     FM301200 23004KT P6SM SCT100
     FM301900 27006KT P6SM VCSH BKN050
     FM302300 31005KT P6SM BKN035=



000
FTUS41 KPBZ 300800 AAA
TAFAGC
TAF AMD
KAGC 300801Z 3008/0106 17006KT 4SM BR SKC
     FM301200 23004KT P6SM SCT100
     FM301700 27006KT P6SM VCSH BKN050
     FM302200 33005KT P6SM BKN035=



000
FTUS41 KPBZ 300500
TAFBVI
TAF
KBVI 300532Z 3006/0106 VRB03KT P6SM SCT045
     FM301000 00000KT 2SM BR SCT002
     FM301200 23004KT P6SM SCT100
     FM301700 27006KT P6SM VCSH BKN050
     FM302200 33005KT P6SM BKN035
      AMD NOT SKED=



000
FTUS41 KPBZ 300500
TAFAGC
TAF
KAGC 300532Z 3006/0106 VRB03KT P6SM SCT045
     FM301000 00000KT 3SM BR SCT003
     FM301200 23004KT P6SM SCT100
     FM301700 27006KT P6SM VCSH BKN050
     FM302200 33005KT P6SM BKN035=



000
FTUS41 KPBZ 300500
TAFDUJ
TAF
KDUJ 300532Z 3006/0106 VRB03KT P6SM BKN040
     FM300800 00000KT 1SM BR SCT001
     FM301200 23004KT P6SM SCT100
     FM301600 27006KT P6SM VCSH BKN050
     FM302300 34005KT P6SM BKN035=



000
FTUS41 KPBZ 300500
TAFPIT
TAF
KPIT 300532Z 3006/0112 00000KT P6SM SKC
     FM301000 00000KT 3SM BR SCT003
     FM301200 23004KT P6SM SCT100
     FM301700 27006KT P6SM VCSH BKN050
     FM302200 33005KT P6SM BKN035=



000
FTUS41 KPBZ 300500
TAFLBE
TAF
KLBE 300532Z 3006/0106 VRB03KT P6SM SCT045
     FM301000 00000KT 3SM BR SCT003
     FM301200 23004KT P6SM SCT100
     FM301900 27006KT P6SM VCSH BKN050
     FM302300 31005KT P6SM BKN035=



000
FTUS41 KPBZ 300500
TAFHLG
TAF
KHLG 300532Z 3006/0106 00000KT 1/4SM FG VV003
      TEMPO 3010/3013 2SM BR SCT005
     FM301300 23004KT P6SM SCT100
     FM301600 27006KT P6SM VCSH BKN050
     FM302100 31005KT P6SM BKN040=



000
FTUS41 KPBZ 300500
TAFZZV
TAF
KZZV 300532Z 3006/0106 00000KT 2SM BR SCT002
     FM301200 23004KT P6SM SCT100
     FM301600 27006KT P6SM VCSH BKN050
     FM302000 31005KT P6SM BKN040=



000
FTUS41 KPBZ 300500
TAFMGW
TAF
KMGW 300532Z 3006/0106 VRB03KT P6SM SCT045
     FM301000 00000KT 3SM BR SCT003
     FM301200 23004KT P6SM SCT100
     FM301900 25006KT P6SM VCSH BKN050
     FM010100 30005KT P6SM SCT040=



000
FTUS41 KPBZ 300500 AAB
TAFHLG
TAF AMD
KHLG 300518Z 3005/3024 00000KT 1/4SM FG VV003
      TEMPO 3010/3013 2SM BR SCT005
     FM301300 23004KT P6SM SCT100
     FM301800 27006KT P6SM VCSH BKN050=



000
FTUS41 KPBZ 300300 AAA
TAFHLG
TAF AMD
KHLG 300333Z 3004/3024 00000KT 2SM BR SCT003
     FM300800 00000KT 1/2SM FG BKN003
     FM301200 23004KT P6SM SCT100
     FM301800 27006KT P6SM VCSH BKN050=



000
FTUS41 KPBZ 300200 AAB
TAFPIT
TAF AMD
KPIT 300256Z 3003/0106 00000KT P6SM SKC
     FM301000 00000KT 3SM BR SCT003
     FM301200 23004KT P6SM SCT100
     FM301700 27006KT P6SM VCSH BKN050=



000
FTUS41 KPBZ 300200 AAA
TAFPIT
TAF AMD
KPIT 300232Z 3003/0106 VRB03KT P6SM SKC
     FM301000 00000KT 3SM BR SCT003
     FM301200 23004KT P6SM SCT100
     FM301700 27006KT P6SM VCSH BKN050=



000
FTUS41 KPBZ 292300
TAFPIT
TAF
KPIT 292322Z 3000/0106 VRB03KT P6SM SCT045
     FM301000 00000KT 3SM BR SCT003
     FM301200 23004KT P6SM SCT100
     FM301700 27006KT P6SM VCSH BKN050=



000
FTUS41 KPBZ 292300
TAFLBE
TAF
KLBE 292322Z 3000/3024 VRB03KT P6SM SCT045
     FM301000 00000KT 3SM BR SCT003
     FM301200 23004KT P6SM SCT100
     FM301900 27006KT P6SM VCSH BKN050=



000
FTUS41 KPBZ 292300
TAFDUJ
TAF
KDUJ 292322Z 3000/3024 VRB03KT P6SM SCT045
     FM300800 00000KT 1SM BR SCT001
     FM301200 23004KT P6SM SCT100
     FM301700 27006KT P6SM VCSH BKN050=



000
FTUS41 KPBZ 292300
TAFAGC
TAF
KAGC 292322Z 3000/3024 VRB03KT P6SM SCT045
     FM301000 00000KT 3SM BR SCT003
     FM301200 23004KT P6SM SCT100
     FM301700 27006KT P6SM VCSH BKN050=



000
FTUS41 KPBZ 292300
TAFBVI
TAF
KBVI 292322Z 3000/3024 VRB03KT P6SM SCT045
     FM301000 00000KT 2SM BR SCT002
     FM301200 23004KT P6SM SCT100
     FM301700 27006KT P6SM VCSH BKN050
      AMD NOT SKED 3001/3011=



000
FTUS41 KPBZ 292300
TAFHLG
TAF
KHLG 292322Z 3000/3024 VRB03KT P6SM SCT045
     FM301000 00000KT 2SM BR SCT002
     FM301200 23004KT P6SM SCT100
     FM301800 27006KT P6SM VCSH BKN050=



000
FTUS41 KPBZ 292300
TAFMGW
TAF
KMGW 292322Z 3000/3024 VRB03KT P6SM SCT045
     FM301000 00000KT 3SM BR SCT003
     FM301200 23004KT P6SM SCT100
     FM301900 27006KT P6SM VCSH BKN050=



000
FTUS41 KPBZ 292300
TAFZZV
TAF
KZZV 292322Z 3000/3024 VRB03KT P6SM SCT045
     FM301000 00000KT 2SM BR SCT002
     FM301200 23004KT P6SM SCT100
     FM301700 27006KT P6SM VCSH BKN050=



000
FTUS41 KPBZ 292000 AAA
TAFPIT
TAF AMD
KPIT 292056Z 2921/3024 30005KT P6SM BKN045
     FM301700 24005KT P6SM VCSH BKN050=



000
FTUS41 KPBZ 292000 AAA
TAFHLG
TAF AMD
KHLG 292001Z 2920/3018 23005KT P6SM BKN045
      TEMPO 2920/2921 -SHRA
     FM301000 00000KT 2SM BR SCT100
     FM301700 23005KT P6SM VCSH BKN050=



000
FTUS41 KPBZ 291700
TAFBVI
TAF
KBVI 291720Z 2918/3018 29003KT P6SM SCT035
     FM301000 00000KT 2SM BR SKC
     FM301400 24005KT P6SM VCSH BKN050=



000
FTUS41 KPBZ 291700
TAFZZV
TAF
KZZV 291720Z 2918/3018 24005KT P6SM SCT070
     FM301000 00000KT 2SM BR SCT002
     FM301400 27005KT P6SM BKN050=



000
FTUS41 KPBZ 291700
TAFMGW
TAF
KMGW 291720Z 2918/3018 24005KT P6SM SCT035
     FM300900 00000KT 3SM BR SKC
     FM301500 24005KT P6SM BKN050=



000
FTUS41 KPBZ 291700
TAFLBE
TAF
KLBE 291720Z 2918/3018 26005KT P6SM SCT040=



000
FTUS41 KPBZ 291700
TAFAGC
TAF
KAGC 291720Z 2918/3018 26005KT P6SM SCT035
     FM301100 00000KT 3SM BR SCT001
     FM301500 24005KT P6SM VCSH BKN050=



000
FTUS41 KPBZ 291700
TAFPIT
TAF
KPIT 291720Z 2918/3024 26005KT P6SM SCT035
     FM301500 24005KT P6SM VCSH BKN050=



000
FTUS41 KPBZ 291700
TAFDUJ
TAF
KDUJ 291720Z 2918/3018 25007KT P6SM SCT035
     FM300600 00000KT 1SM BR SCT002
     FM301400 22005KT P6SM VCSH BKN050=



000
FTUS41 KPBZ 291700
TAFHLG
TAF
KHLG 291720Z 2918/3018 23005KT P6SM SCT035
     FM301000 00000KT 2SM BR SKC
     FM301400 23005KT P6SM VCSH BKN050=



000
FTUS41 KPBZ 291500 AAA
TAFPIT
TAF AMD
KPIT 291500Z 2915/3018 13003KT P6SM FEW250
     FM291700 26005KT P6SM SCT050=



000
FTUS41 KPBZ 291400 AAB
TAFZZV
TAF AMD
KZZV 291411Z 2914/3012 00000KT P6SM SCT250
      TEMPO 2914/2915 1SM BR OVC002
     FM291500 26005KT P6SM SCT050=



000
FTUS41 KPBZ 291300 AAA
TAFZZV
TAF AMD
KZZV 291321Z 2913/3012 00000KT P6SM SCT250
      TEMPO 2913/2914 OVC004
     FM291500 26005KT P6SM SCT050=



000
FTUS41 KPBZ 291100 CCA
TAFLBE
TAF COR
KLBE 291127Z 2912/3012 VRB03KT P6SM BKN250
     FM291400 26005KT P6SM SCT050=



000
FTUS41 KPBZ 291100
TAFLBE
TAF
KLBE 291126Z 2912/3012 VRB03KT 4SM BR BKN250
     FM291400 26005KT P6SM SCT050=



000
FTUS41 KPBZ 291100
TAFAGC
TAF
KAGC 291126Z 2912/3012 VRB03KT 2SM BR BKN200
      TEMPO 2912/2913 1/4SM FG VV002
     FM291400 26005KT P6SM SCT050=



000
FTUS41 KPBZ 291100
TAFZZV
TAF
KZZV 291126Z 2912/3012 00000KT P6SM SCT250
     FM291500 26005KT P6SM SCT050=



000
FTUS41 KPBZ 291100
TAFHLG
TAF
KHLG 291126Z 2912/3012 00000KT P6SM SCT250
      TEMPO 2912/2913 4SM BR
     FM291300 24005KT P6SM SCT050=



000
FTUS41 KPBZ 291100
TAFPIT
TAF
KPIT 291126Z 2912/3018 VRB02KT P6SM SCT250
     FM291500 26005KT P6SM SCT050=



000
FTUS41 KPBZ 291100
TAFBVI
TAF
KBVI 291126Z 2912/3012 00000KT 2SM BR SCT250
     FM291400 26005KT P6SM SCT050=



000
FTUS41 KPBZ 291100
TAFMGW
TAF
KMGW 291126Z 2912/3012 VRB03KT P6SM BKN250
     FM291400 23005KT P6SM SCT050=



000
FTUS41 KPBZ 291100
TAFDUJ
TAF
KDUJ 291126Z 2912/3012 00000KT 1/4SM FG BKN003
     FM291300 00000KT 3SM BR BKN005
     FM291400 25004KT P6SM SCT050=



000
FTUS41 KPBZ 291100 AAA
TAFDUJ
TAF AMD
KDUJ 291101Z 2911/3006 00000KT 1/4SM FG BKN003
     FM291300 00000KT 3SM BR BKN005
     FM291400 25004KT P6SM SCT050=



000
FTUS41 KPBZ 291000 AAA
TAFAGC
TAF AMD
KAGC 291058Z 2911/3006 VRB03KT 2SM BR BKN200
      TEMPO 2911/2913 1/4SM FG
     FM291400 26005KT P6SM SCT050=



000
FTUS41 KPBZ 290800 AAA
TAFPIT
TAF AMD
KPIT 290855Z 2909/3012 VRB02KT P6SM BKN200
     FM291500 26005KT P6SM SCT050=



000
FTUS41 KPBZ 290500 CCA
TAFDUJ
TAF COR
KDUJ 290550Z 2906/3006 VRB03KT 2SM BR BKN200
     FM290800 00000KT 1SM BR SCT200
     FM291000 00000KT 1/2SM FG VV002
     FM291300 24005KT P6SM SCT050=



000
FTUS41 KPBZ 290500
TAFHLG
TAF
KHLG 290539Z 2906/3006 VRB03KT P6SM BKN200
     FM290900 00000KT 2SM BR SCT200
     FM291300 24005KT P6SM SCT050=



000
FTUS41 KPBZ 290500
TAFLBE
TAF
KLBE 290539Z 2906/3006 VRB03KT P6SM BKN200
     FM291600 26005KT P6SM SCT050=



000
FTUS41 KPBZ 290500
TAFAGC
TAF
KAGC 290539Z 2906/3006 VRB03KT P6SM BKN200
     FM291500 26005KT P6SM SCT050=



000
FTUS41 KPBZ 290500
TAFDUJ
TAF
KDUJ 290539Z 2906/3006 VRB03KT P6SM BKN200
     FM290800 00000KT 1SM BR SCT200
     FM291000 00000KT 1/2SM FG VV002
     FM291300 24005KT P6SM SCT050=



000
FTUS41 KPBZ 290500
TAFBVI
TAF
KBVI 290539Z 2906/3006 VRB03KT P6SM BKN200
     FM291000 00000KT 3SM BR SCT200
     FM291300 26005KT P6SM SCT050
      AMD NOT SKED=



000
FTUS41 KPBZ 290500
TAFMGW
TAF
KMGW 290539Z 2906/3006 VRB03KT P6SM BKN200
     FM291500 23005KT P6SM SCT050=



000
FTUS41 KPBZ 290500
TAFPIT
TAF
KPIT 290539Z 2906/3012 VRB02KT P6SM BKN200
     FM291500 26005KT P6SM SCT050=



000
FTUS41 KPBZ 290500
TAFZZV
TAF
KZZV 290539Z 2906/3006 VRB05KT P6SM SCT200
     FM290900 00000KT 3SM BR SCT200
     FM291300 29005KT P6SM SCT050=



000
FTUS41 KPBZ 290200 AAA
TAFPIT
TAF AMD
KPIT 290256Z 2903/3006 VRB02KT P6SM BKN200
     FM291500 26005KT P6SM SCT050=



000
FTUS41 KPBZ 282300
TAFLBE
TAF
KLBE 282322Z 2900/2924 VRB03KT P6SM BKN200
     FM291600 26005KT P6SM SCT050=



000
FTUS41 KPBZ 282300
TAFPIT
TAF
KPIT 282322Z 2900/3006 VRB03KT P6SM BKN200
     FM291500 26005KT P6SM SCT050=



000
FTUS41 KPBZ 282300
TAFHLG
TAF
KHLG 282322Z 2900/2924 VRB03KT P6SM BKN200
     FM290900 00000KT 2SM BR SCT200
     FM291300 24005KT P6SM SCT050=



000
FTUS41 KPBZ 282300
TAFDUJ
TAF
KDUJ 282322Z 2900/2924 VRB03KT P6SM BKN200
     FM290700 00000KT 1SM BR SCT200
     FM290900 00000KT 1/2SM FG VV002
     FM291300 24005KT P6SM SCT050=



000
FTUS41 KPBZ 282300
TAFBVI
TAF
KBVI 282322Z 2900/2924 VRB03KT P6SM BKN200
     FM291000 00000KT 3SM BR SCT200
     FM291300 26005KT P6SM SCT050
      AMD NOT SKED 2901/2911=



000
FTUS41 KPBZ 282300
TAFMGW
TAF
KMGW 282322Z 2900/2924 VRB03KT P6SM BKN200
     FM291500 23005KT P6SM SCT050=



000
FTUS41 KPBZ 282300
TAFZZV
TAF
KZZV 282322Z 2900/2924 VRB05KT P6SM SCT200
     FM290900 00000KT 3SM BR SCT200
     FM291300 29005KT P6SM SCT050=



000
FTUS41 KPBZ 282300
TAFAGC
TAF
KAGC 282322Z 2900/2924 VRB03KT P6SM BKN200
     FM291500 26005KT P6SM SCT050=



000
FTUS41 KPBZ 282000 AAA
TAFPIT
TAF AMD
KPIT 282058Z 2821/2924 VRB03KT P6SM BKN250
     FM291500 26005KT P6SM SCT050=



000
FTUS41 KPBZ 281700
TAFBVI
TAF
KBVI 281736Z 2818/2918 VRB05KT P6SM BKN250
     FM282300 00000KT P6SM SCT250
     FM291100 00000KT 4SM BR SKC
     FM291200 VRB05KT P6SM SKC=



000
FTUS41 KPBZ 281700
TAFDUJ
TAF
KDUJ 281736Z 2818/2918 VRB05KT P6SM BKN250
     FM282300 00000KT P6SM BKN250
     FM290800 00000KT 4SM BR BKN003
     FM290900 10002KT 1/2SM FG BKN001
     FM291100 00000KT 1/4SM FG BKN001
     FM291200 00000KT 1/2SM FG SCT250
     FM291300 VRB05KT P6SM SCT250=



000
FTUS41 KPBZ 281700
TAFHLG
TAF
KHLG 281736Z 2818/2918 VRB05KT P6SM BKN250
     FM282300 VRB05KT P6SM SKC
     FM291000 00000KT 1 1/2SM BR SCT250
     FM291100 00000KT 1/2SM FG BKN001
     FM291300 00000KT 6SM BR SCT250
     FM291400 VRB05KT P6SM SCT250=



000
FTUS41 KPBZ 281700
TAFPIT
TAF
KPIT 281736Z 2818/2924 VRB05KT P6SM BKN250
     FM282300 00000KT P6SM SCT250
     FM291100 00000KT 5SM BR SKC
     FM291200 VRB05KT P6SM SKC=



000
FTUS41 KPBZ 281700
TAFZZV
TAF
KZZV 281736Z 2818/2918 VRB05KT P6SM BKN250
     FM282000 VRB05KT P6SM SCT250
     FM291000 00000KT 1 1/2SM BR SCT250=



000
FTUS41 KPBZ 281700
TAFAGC
TAF
KAGC 281736Z 2818/2918 VRB05KT P6SM BKN250
     FM282300 VRB03KT P6SM SCT250
     FM291100 00000KT 5SM BR SKC
     FM291200 VRB05KT P6SM SKC=



000
FTUS41 KPBZ 281700
TAFLBE
TAF
KLBE 281736Z 2818/2918 VRB05KT P6SM BKN250
     FM282300 00000KT P6SM SKC
     FM291000 00000KT 4SM BR BKN250
     FM291300 VRB05KT P6SM SKC=



000
FTUS41 KPBZ 281700
TAFMGW
TAF
KMGW 281736Z 2818/2918 VRB05KT P6SM BKN250
     FM282300 VRB05KT P6SM SCT250
     FM291100 00000KT 1 1/2SM BR BKN250
     FM291200 00000KT 1/2SM FG BKN250
     FM291300 00000KT P6SM BKN250=



000
FTUS41 KPBZ 281500 AAA
TAFPIT
TAF AMD
KPIT 281513Z 2815/2918 VRB05KT P6SM BKN250
     FM282300 VRB03KT P6SM SKC=



000
FTUS41 KPBZ 281300 AAA
TAFHLG
TAF AMD
KHLG 281356Z 2814/2912 VRB05KT P6SM BKN250
     FM282300 VRB05KT P6SM SKC
     FM290700 00000KT 1 1/2SM BR SCT250
     FM290900 00000KT 1/2SM FG BKN001=



000
FTUS41 KPBZ 281100
TAFMGW
TAF
KMGW 281136Z 2812/2912 VRB05KT P6SM BKN250
     FM282300 VRB05KT P6SM SKC=



000
FTUS41 KPBZ 281100
TAFZZV
TAF
KZZV 281136Z 2812/2912 VRB05KT P6SM BKN250
     FM282000 VRB05KT P6SM SKC
     FM291000 00000KT 1 1/2SM BR SCT250=



000
FTUS41 KPBZ 281100
TAFLBE
TAF
KLBE 281136Z 2812/2912 VRB03KT 2SM BR BKN010
     FM281300 VRB05KT P6SM BKN250
     FM282300 VRB05KT P6SM SKC
     FM290900 00000KT 4SM BR BKN250=



000
FTUS41 KPBZ 281100
TAFDUJ
TAF
KDUJ 281136Z 2812/2912 VRB05KT P6SM BKN250
     FM282300 VRB05KT P6SM SKC
     FM290700 00000KT 2SM BR BKN001
     FM290800 00000KT 1/2SM FG BKN001=



000
FTUS41 KPBZ 281100
TAFHLG
TAF
KHLG 281136Z 2812/2912 VRB03KT 1/4SM FG OVC001
     FM281400 VRB05KT P6SM BKN250
     FM282300 VRB05KT P6SM SKC
     FM290700 00000KT 1 1/2SM BR SCT250
     FM290900 00000KT 1/2SM FG BKN001=



000
FTUS41 KPBZ 281100
TAFPIT
TAF
KPIT 281136Z 2812/2918 VRB05KT P6SM BKN250
     FM282300 VRB05KT P6SM SKC=



000
FTUS41 KPBZ 281100
TAFAGC
TAF
KAGC 281136Z 2812/2912 VRB05KT P6SM BKN250
     FM282300 VRB05KT P6SM SKC=



000
FTUS41 KPBZ 281100
TAFBVI
TAF
KBVI 281136Z 2812/2912 VRB05KT P6SM BKN250
     FM282300 VRB05KT P6SM SKC
      AMD NOT SKED=



000
FTUS41 KPBZ 280800 AAA
TAFHLG
TAF AMD
KHLG 280858Z 2809/2906 VRB03KT 1/4SM FG OVC001
     FM281400 VRB05KT P6SM BKN250
     FM282300 VRB05KT P6SM SKC=



000
FTUS41 KPBZ 280800 AAA
TAFMGW
TAF AMD
KMGW 280817Z 2808/2906 VRB05KT P6SM BKN250
     FM282300 VRB05KT P6SM SKC=



000
FTUS41 KPBZ 280800 AAA
TAFZZV
TAF AMD
KZZV 280817Z 2808/2906 VRB05KT P6SM BKN250
      TEMPO 2810/2812 4SM BR
     FM282000 VRB05KT P6SM SKC=



000
FTUS41 KPBZ 280800 AAA
TAFAGC
TAF AMD
KAGC 280816Z 2808/2906 VRB05KT P6SM BKN250
     FM282300 VRB05KT P6SM SKC=



000
FTUS41 KPBZ 280800 AAA
TAFPIT
TAF AMD
KPIT 280816Z 2808/2912 VRB05KT P6SM BKN250
     FM282300 VRB05KT P6SM SKC=



000
FTUS41 KPBZ 280500
TAFDUJ
TAF
KDUJ 280520Z 2806/2906 VRB03KT P6SM SKC
      TEMPO 2810/2812 1/2SM FG OVC001
     FM281400 VRB05KT P6SM BKN250
     FM282300 VRB05KT P6SM SKC=



000
FTUS41 KPBZ 280500
TAFLBE
TAF
KLBE 280520Z 2806/2906 VRB03KT P6SM SKC
      TEMPO 2810/2812 1/2SM FG OVC001
     FM281400 VRB05KT P6SM BKN250
     FM282300 VRB05KT P6SM SKC=



000
FTUS41 KPBZ 280500
TAFZZV
TAF
KZZV 280520Z 2806/2906 VRB03KT P6SM SKC
      TEMPO 2807/2810 2SM BR
     FM281000 VRB05KT P6SM BKN250
     FM282000 VRB05KT P6SM SKC=



000
FTUS41 KPBZ 280500
TAFMGW
TAF
KMGW 280520Z 2806/2906 VRB03KT P6SM SKC
     FM281300 VRB05KT P6SM BKN250
     FM282300 VRB05KT P6SM SKC=



000
FTUS41 KPBZ 280500
TAFAGC
TAF
KAGC 280520Z 2806/2906 VRB03KT P6SM SKC
     FM281400 VRB05KT P6SM BKN250
     FM282300 VRB05KT P6SM SKC=



000
FTUS41 KPBZ 280500
TAFPIT
TAF
KPIT 280520Z 2806/2912 VRB03KT P6SM SKC
      TEMPO 2809/2812 3SM BR
     FM281400 VRB05KT P6SM BKN250
     FM282300 VRB05KT P6SM SKC=



000
FTUS41 KPBZ 280500
TAFHLG
TAF
KHLG 280520Z 2806/2906 VRB03KT P6SM SKC
      TEMPO 2810/2812 2SM BR
     FM281400 VRB05KT P6SM BKN250
     FM282300 VRB05KT P6SM SKC=



000
FTUS41 KPBZ 280500
TAFBVI
TAF
KBVI 280520Z 2806/2906 VRB03KT P6SM SKC
     FM281400 VRB05KT P6SM BKN250
     FM282300 VRB05KT P6SM SKC
      AMD NOT SKED=



000
FTUS41 KPBZ 272300
TAFLBE
TAF
KLBE 272321Z 2800/2824 VRB03KT 6SM BR SCT150 BKN250
     FM280800 00000KT 3SM BR SCT250
     FM281200 VRB03KT P6SM BKN250=



000
FTUS41 KPBZ 272300
TAFAGC
TAF
KAGC 272321Z 2800/2824 VRB03KT P6SM SCT150 BKN250=



000
FTUS41 KPBZ 272300
TAFDUJ
TAF
KDUJ 272321Z 2800/2824 09003KT P6SM SCT150 BKN250
     FM280800 00000KT 4SM BR SCT250
     FM281000 00000KT 2SM BR SCT250
     FM281300 VRB03KT P6SM BKN250=



000
FTUS41 KPBZ 272300
TAFZZV
TAF
KZZV 272321Z 2800/2824 VRB03KT P6SM SCT150 BKN250=



000
FTUS41 KPBZ 272300
TAFBVI
TAF
KBVI 272321Z 2800/2824 VRB03KT P6SM SCT150 BKN250
      AMD NOT SKED 2801/2811=



000
FTUS41 KPBZ 272300
TAFHLG
TAF
KHLG 272321Z 2800/2824 VRB03KT P6SM SCT150 BKN250=



000
FTUS41 KPBZ 272300
TAFPIT
TAF
KPIT 272321Z 2800/2906 VRB03KT P6SM SCT150 BKN250=



000
FTUS41 KPBZ 272300
TAFMGW
TAF
KMGW 272321Z 2800/2824 VRB03KT P6SM SCT150 BKN250=



000
FTUS41 KPBZ 272000 AAA
TAFPIT
TAF AMD
KPIT 272055Z 2721/2824 VRB03KT P6SM SCT150 BKN250=



    US Dept of Commerce
    National Oceanic and Atmospheric Administration
    National Weather Service
    1325 East West Highway
    Silver Spring, MD 20910
    Page Author: NWS Internet Services Team
Disclaimer
Information Quality
Credits
Glossary
Privacy Policy
Freedom of Information Act (FOIA)
About Us
Career Opportunities